Time;durP1;ratioP1;P1;durP2;ratioP2;P2;SDS_P1;SDS_P2;PMS_P1;PMS_P2;Temp;Humidity;BMP_temperature;BMP_pressure;BME280_temperature;BME280_humidity;BME280_pressure;Samples;Min_cycle;Max_cycle;Signal;HPM_P1;HPM_P2
2021/08/06 00:04:45;;;;;;;0.03;0.00;;;;;;;;;;10558523;27;20051;-23
2021/08/06 00:09:47;;;;;;;0.00;0.00;;;;;;;;;;10558522;28;20056;-23
2021/08/06 00:14:50;;;;;;;0.10;0.10;;;;;;;;;;10557258;28;20042;-23
2021/08/06 00:19:54;;;;;;;0.08;0.08;;;;;;;;;;10559138;28;20059;-23
2021/08/06 00:24:57;;;;;;;0.15;0.00;;;;;;;;;;10558343;28;20043;-23
2021/08/06 00:30:00;;;;;;;0.00;0.00;;;;;;;;;;10559026;27;20064;-23
2021/08/06 00:35:04;;;;;;;0.00;0.00;;;;;;;;;;10557142;28;20040;-24
2021/08/06 00:40:08;;;;;;;0.03;0.03;;;;;;;;;;10557715;28;20827;-25
2021/08/06 00:45:15;;;;;;;0.00;0.00;;;;;;;;;;10554924;28;20139;-25
2021/08/06 00:50:22;;;;;;;0.00;0.00;;;;;;;;;;10556481;28;20051;-27
2021/08/06 00:55:25;;;;;;;0.17;0.00;;;;;;;;;;10556109;28;20105;-27
2021/08/06 01:00:41;;;;;;;0.00;0.00;;;;;;;;;;10556534;28;20396;-26
2021/08/06 01:05:51;;;;;;;0.20;0.00;;;;;;;;;;10552883;28;20416;-25
2021/08/06 01:10:55;;;;;;;0.17;0.00;;;;;;;;;;10558114;27;20634;-24
2021/08/06 01:16:00;;;;;;;0.00;0.00;;;;;;;;;;10559452;28;20389;-25
2021/08/06 01:21:09;;;;;;;0.00;0.00;;;;;;;;;;10562104;28;20091;-26
2021/08/06 01:26:16;;;;;;;2.95;0.50;;;;;;;;;;10561638;28;20044;-26
2021/08/06 01:31:31;;;;;;;0.15;0.00;;;;;;;;;;10562085;28;20047;-25
2021/08/06 01:36:50;;;;;;;1.23;0.30;;;;;;;;;;10562253;28;20050;-24
2021/08/06 01:42:15;;;;;;;0.57;0.13;;;;;;;;;;10562609;28;20048;-24
2021/08/06 01:47:26;;;;;;;0.10;0.10;;;;;;;;;;10562111;28;20825;-25
2021/08/06 01:52:36;;;;;;;0.00;0.00;;;;;;;;;;10562190;27;20079;-24
2021/08/06 01:57:44;;;;;;;0.10;0.10;;;;;;;;;;10561291;28;20055;-25
2021/08/06 02:02:47;;;;;;;0.10;0.10;;;;;;;;;;10562206;28;20489;-27
2021/08/06 02:07:58;;;;;;;0.00;0.00;;;;;;;;;;10560917;28;20052;-25
2021/08/06 02:13:03;;;;;;;0.03;0.03;;;;;;;;;;10561102;28;20058;-24
2021/08/06 02:18:07;;;;;;;0.00;0.00;;;;;;;;;;10561162;28;20048;-25
2021/08/06 02:23:28;;;;;;;0.00;0.00;;;;;;;;;;10558308;28;20081;-26
2021/08/06 02:28:33;;;;;;;0.00;0.00;;;;;;;;;;10561259;27;20046;-25
2021/08/06 02:33:36;;;;;;;0.08;0.08;;;;;;;;;;10558719;28;20484;-24
2021/08/06 02:38:39;;;;;;;0.08;0.08;;;;;;;;;;10560914;27;20047;-23
2021/08/06 02:43:44;;;;;;;0.00;0.00;;;;;;;;;;10558573;27;20043;-23
2021/08/06 02:48:47;;;;;;;0.00;0.00;;;;;;;;;;10559507;28;20040;-23
2021/08/06 02:53:53;;;;;;;0.10;0.10;;;;;;;;;;10558724;28;20040;-23
2021/08/06 02:58:57;;;;;;;0.03;0.03;;;;;;;;;;10559823;28;20821;-23
2021/08/06 03:04:02;;;;;;;0.10;0.10;;;;;;;;;;10557164;28;20066;-23
2021/08/06 03:09:05;;;;;;;0.10;0.00;;;;;;;;;;10557457;28;20051;-23
2021/08/06 03:14:09;;;;;;;0.00;0.00;;;;;;;;;;10556323;27;20476;-23
2021/08/06 03:19:14;;;;;;;0.00;0.00;;;;;;;;;;10558256;28;20047;-23
2021/08/06 03:24:17;;;;;;;0.00;0.00;;;;;;;;;;10556456;27;20065;-24
2021/08/06 03:29:21;;;;;;;0.10;0.10;;;;;;;;;;10555049;28;20051;-24
2021/08/06 03:34:25;;;;;;;0.00;0.00;;;;;;;;;;10554888;28;20046;-23
2021/08/06 03:39:27;;;;;;;0.10;0.10;;;;;;;;;;10557925;27;20063;-25
2021/08/06 03:44:33;;;;;;;0.10;0.10;;;;;;;;;;10555700;28;20060;-22
2021/08/06 03:49:37;;;;;;;0.10;0.10;;;;;;;;;;10557977;28;20142;-23
2021/08/06 03:54:39;;;;;;;0.00;0.00;;;;;;;;;;10556685;28;20485;-23
2021/08/06 03:59:44;;;;;;;0.00;0.00;;;;;;;;;;10556881;28;20039;-23
2021/08/06 04:04:47;;;;;;;0.00;0.00;;;;;;;;;;10553264;28;20047;-23
2021/08/06 04:09:50;;;;;;;0.20;0.10;;;;;;;;;;10558011;28;20052;-23
2021/08/06 04:14:54;;;;;;;0.00;0.00;;;;;;;;;;10556286;28;20063;-23
2021/08/06 04:19:57;;;;;;;0.00;0.00;;;;;;;;;;10555518;28;20108;-22
2021/08/06 04:25:00;;;;;;;0.00;0.00;;;;;;;;;;10553075;28;20050;-23
2021/08/06 04:30:05;;;;;;;0.00;0.00;;;;;;;;;;10555472;28;20382;-23
2021/08/06 04:35:08;;;;;;;0.00;0.00;;;;;;;;;;10553767;28;20454;-23
2021/08/06 04:40:12;;;;;;;0.00;0.00;;;;;;;;;;10557647;28;20063;-23
2021/08/06 04:45:17;;;;;;;0.10;0.00;;;;;;;;;;10555761;28;20476;-23
2021/08/06 04:50:22;;;;;;;0.03;0.03;;;;;;;;;;10557030;28;20048;-24
2021/08/06 04:55:30;;;;;;;0.05;0.05;;;;;;;;;;10565390;28;20567;-23
2021/08/06 05:00:36;;;;;;;0.00;0.00;;;;;;;;;;10566228;28;20055;-23
2021/08/06 05:05:42;;;;;;;0.10;0.10;;;;;;;;;;10564209;28;20492;-23
2021/08/06 05:10:45;;;;;;;0.00;0.00;;;;;;;;;;10564365;28;20047;-25
2021/08/06 05:15:49;;;;;;;0.00;0.00;;;;;;;;;;10562220;28;20048;-25
2021/08/06 05:20:52;;;;;;;0.08;0.08;;;;;;;;;;10562049;28;20054;-26
2021/08/06 05:25:55;;;;;;;0.00;0.00;;;;;;;;;;10562699;27;20043;-25
2021/08/06 05:30:59;;;;;;;0.00;0.00;;;;;;;;;;10565263;28;20500;-24
2021/08/06 05:36:02;;;;;;;0.00;0.00;;;;;;;;;;10561351;28;20043;-25
2021/08/06 05:41:07;;;;;;;0.00;0.00;;;;;;;;;;10564646;28;20047;-25
2021/08/06 05:46:12;;;;;;;0.00;0.00;;;;;;;;;;10563655;27;20141;-25
2021/08/06 05:51:14;;;;;;;0.00;0.00;;;;;;;;;;10565536;28;20055;-26
2021/08/06 05:56:19;;;;;;;0.00;0.00;;;;;;;;;;10559262;27;20496;-25
2021/08/06 06:01:28;;;;;;;0.00;0.00;;;;;;;;;;10564128;28;20130;-25
2021/08/06 06:06:58;;;;;;;0.00;0.00;;;;;;;;;;10563184;28;20516;-25
2021/08/06 06:12:01;;;;;;;0.00;0.00;;;;;;;;;;10564770;28;20052;-25
2021/08/06 06:17:07;;;;;;;0.00;0.00;;;;;;;;;;10562670;28;20051;-25
2021/08/06 06:22:09;;;;;;;0.00;0.00;;;;;;;;;;10564286;28;20091;-25
2021/08/06 06:27:12;;;;;;;0.10;0.08;;;;;;;;;;10560834;27;20040;-25
2021/08/06 06:32:17;;;;;;;0.00;0.00;;;;;;;;;;10560665;28;20047;-25
2021/08/06 06:37:19;;;;;;;0.00;0.00;;;;;;;;;;10561641;28;20426;-25
2021/08/06 06:42:22;;;;;;;0.00;0.00;;;;;;;;;;10562290;28;20047;-25
2021/08/06 06:47:37;;;;;;;0.00;0.00;;;;;;;;;;10561769;27;20373;-26
2021/08/06 06:52:40;;;;;;;0.00;0.00;;;;;;;;;;10561312;28;20449;-25
2021/08/06 06:57:43;;;;;;;0.00;0.00;;;;;;;;;;10560751;28;20439;-27
2021/08/06 07:02:49;;;;;;;0.10;0.00;;;;;;;;;;10559831;28;20047;-25
2021/08/06 07:07:53;;;;;;;0.00;0.00;;;;;;;;;;10560305;28;20066;-26
2021/08/06 07:12:57;;;;;;;0.00;0.00;;;;;;;;;;10558894;28;20040;-26
2021/08/06 07:18:01;;;;;;;0.00;0.00;;;;;;;;;;10559183;28;20048;-26
2021/08/06 07:23:04;;;;;;;0.00;0.00;;;;;;;;;;10561088;27;20036;-25
2021/08/06 07:28:07;;;;;;;0.00;0.00;;;;;;;;;;10560996;28;20047;-25
2021/08/06 07:33:12;;;;;;;0.00;0.00;;;;;;;;;;10556444;27;20052;-25
2021/08/06 07:38:15;;;;;;;0.03;0.00;;;;;;;;;;10558397;28;20484;-25
2021/08/06 07:43:19;;;;;;;0.00;0.00;;;;;;;;;;10559004;28;20040;-26
2021/08/06 07:48:23;;;;;;;0.03;0.00;;;;;;;;;;10559542;28;20496;-26
2021/08/06 07:53:27;;;;;;;0.00;0.00;;;;;;;;;;10559069;28;20546;-25
2021/08/06 07:58:29;;;;;;;0.00;0.00;;;;;;;;;;10559664;28;20138;-27
2021/08/06 08:03:34;;;;;;;0.00;0.00;;;;;;;;;;10557612;28;20521;-25
2021/08/06 08:08:37;;;;;;;0.00;0.00;;;;;;;;;;10560400;28;20051;-26
2021/08/06 08:13:40;;;;;;;0.00;0.00;;;;;;;;;;10559317;28;20485;-26
2021/08/06 08:18:44;;;;;;;0.00;0.00;;;;;;;;;;10559056;28;20767;-25
2021/08/06 08:23:47;;;;;;;0.00;0.00;;;;;;;;;;10560126;28;20111;-27
2021/08/06 08:28:51;;;;;;;0.00;0.00;;;;;;;;;;10568254;28;20820;-26
2021/08/06 08:33:55;;;;;;;0.00;0.00;;;;;;;;;;10560544;28;20051;-25
2021/08/06 08:38:58;;;;;;;0.00;0.00;;;;;;;;;;10566077;27;20565;-26
2021/08/06 08:44:01;;;;;;;0.00;0.00;;;;;;;;;;10563472;28;20070;-26
2021/08/06 08:49:06;;;;;;;0.00;0.00;;;;;;;;;;10565984;28;20071;-26
2021/08/06 08:54:11;;;;;;;0.00;0.00;;;;;;;;;;10564607;27;20058;-25
2021/08/06 08:59:14;;;;;;;0.00;0.00;;;;;;;;;;10566805;28;20087;-25
2021/08/06 09:04:23;;;;;;;0.00;0.00;;;;;;;;;;10565342;28;20058;-26
2021/08/06 09:09:28;;;;;;;0.00;0.00;;;;;;;;;;10563698;27;20783;-26
2021/08/06 09:14:57;;;;;;;0.00;0.00;;;;;;;;;;10565167;28;20488;-26
2021/08/06 09:20:02;;;;;;;0.00;0.00;;;;;;;;;;10565781;28;20118;-26
2021/08/06 09:25:13;;;;;;;0.00;0.00;;;;;;;;;;10564208;28;20041;-26
2021/08/06 09:30:31;;;;;;;0.00;0.00;;;;;;;;;;10565266;28;20424;-26
2021/08/06 09:35:36;;;;;;;0.00;0.00;;;;;;;;;;10563991;28;20043;-26
2021/08/06 09:40:40;;;;;;;0.00;0.00;;;;;;;;;;10564984;28;20044;-26
2021/08/06 09:45:42;;;;;;;0.22;0.00;;;;;;;;;;10565256;27;20060;-26
2021/08/06 09:50:47;;;;;;;0.00;0.00;;;;;;;;;;10566988;28;20122;-26
2021/08/06 09:55:50;;;;;;;0.00;0.00;;;;;;;;;;10563839;28;20481;-26
2021/08/06 10:00:55;;;;;;;0.00;0.00;;;;;;;;;;10565810;27;20067;-26
2021/08/06 10:06:09;;;;;;;0.05;0.00;;;;;;;;;;10565017;28;20043;-26
2021/08/06 10:11:12;;;;;;;0.00;0.00;;;;;;;;;;10563924;27;20504;-26
2021/08/06 10:16:15;;;;;;;0.00;0.00;;;;;;;;;;10564679;28;20039;-28
2021/08/06 10:21:21;;;;;;;0.00;0.00;;;;;;;;;;10564569;28;20400;-25
2021/08/06 10:26:24;;;;;;;0.00;0.00;;;;;;;;;;10561701;28;20066;-25
2021/08/06 10:31:27;;;;;;;0.00;0.00;;;;;;;;;;10562622;28;20039;-26
2021/08/06 10:36:39;;;;;;;0.00;0.00;;;;;;;;;;10562742;28;20051;-26
2021/08/06 10:41:51;;;;;;;0.10;0.00;;;;;;;;;;10563396;28;20043;-26
2021/08/06 10:46:57;;;;;;;0.00;0.00;;;;;;;;;;10558203;28;20044;-26
2021/08/06 10:52:15;;;;;;;0.35;0.00;;;;;;;;;;10564566;28;20504;-26
2021/08/06 10:57:30;;;;;;;0.00;0.00;;;;;;;;;;10560566;28;20066;-26
2021/08/06 11:02:39;;;;;;;0.00;0.00;;;;;;;;;;10561979;28;20047;-26
2021/08/06 11:07:43;;;;;;;0.00;0.00;;;;;;;;;;10560825;27;20522;-26
2021/08/06 11:12:48;;;;;;;0.00;0.00;;;;;;;;;;10562251;28;20485;-26
2021/08/06 11:17:53;;;;;;;0.17;0.00;;;;;;;;;;10560151;27;20043;-26
2021/08/06 11:22:55;;;;;;;0.00;0.00;;;;;;;;;;10561463;28;20046;-26
2021/08/06 11:28:00;;;;;;;0.00;0.00;;;;;;;;;;10561843;28;20040;-27
2021/08/06 11:33:04;;;;;;;0.00;0.00;;;;;;;;;;10561140;28;20044;-27
2021/08/06 11:38:12;;;;;;;0.00;0.00;;;;;;;;;;10558283;28;20052;-26
2021/08/06 11:43:19;;;;;;;0.00;0.00;;;;;;;;;;10560251;28;20067;-25
2021/08/06 11:48:22;;;;;;;0.00;0.00;;;;;;;;;;10559916;27;20096;-25
2021/08/06 11:53:25;;;;;;;0.70;0.00;;;;;;;;;;10560500;28;20123;-25
2021/08/06 11:58:32;;;;;;;0.00;0.00;;;;;;;;;;10562141;27;20067;-26
2021/08/06 12:03:42;;;;;;;0.00;0.00;;;;;;;;;;10558263;28;20039;-25
2021/08/06 12:08:45;;;;;;;0.00;0.00;;;;;;;;;;10558294;27;20043;-25
2021/08/06 12:13:52;;;;;;;0.00;0.00;;;;;;;;;;10557441;28;20051;-25
2021/08/06 12:18:55;;;;;;;0.00;0.00;;;;;;;;;;10564660;27;20051;-25
2021/08/06 12:23:59;;;;;;;0.00;0.00;;;;;;;;;;10556774;28;20059;-25
2021/08/06 12:29:09;;;;;;;0.00;0.00;;;;;;;;;;10557968;28;20056;-26
2021/08/06 12:34:12;;;;;;;0.00;0.00;;;;;;;;;;10558091;28;20519;-25
2021/08/06 12:39:16;;;;;;;0.00;0.00;;;;;;;;;;10560416;28;20500;-25
2021/08/06 12:44:21;;;;;;;0.00;0.00;;;;;;;;;;10558286;28;20043;-26
2021/08/06 12:49:25;;;;;;;0.00;0.00;;;;;;;;;;10558128;28;20051;-25
2021/08/06 12:54:35;;;;;;;0.00;0.00;;;;;;;;;;10558215;28;20032;-24
2021/08/06 12:59:43;;;;;;;0.00;0.00;;;;;;;;;;10560417;28;20047;-25
2021/08/06 13:04:46;;;;;;;0.00;0.00;;;;;;;;;;10560709;28;20078;-24
2021/08/06 13:09:49;;;;;;;0.00;0.00;;;;;;;;;;10560067;28;20051;-25
2021/08/06 13:14:53;;;;;;;0.00;0.00;;;;;;;;;;10566551;27;20036;-27
2021/08/06 13:19:56;;;;;;;0.00;0.00;;;;;;;;;;10565833;28;20051;-25
2021/08/06 13:24:58;;;;;;;0.00;0.00;;;;;;;;;;10564213;28;20842;-25
2021/08/06 13:30:05;;;;;;;0.00;0.00;;;;;;;;;;10567562;28;20047;-25
2021/08/06 13:35:08;;;;;;;0.00;0.00;;;;;;;;;;10564352;28;20115;-25
2021/08/06 13:40:11;;;;;;;0.00;0.00;;;;;;;;;;10566967;28;20036;-25
2021/08/06 13:45:15;;;;;;;0.00;0.00;;;;;;;;;;10566167;28;20039;-25
2021/08/06 13:50:18;;;;;;;0.00;0.00;;;;;;;;;;10566689;28;20047;-25
2021/08/06 13:55:21;;;;;;;0.00;0.00;;;;;;;;;;10561547;28;20052;-25
2021/08/06 14:00:25;;;;;;;0.00;0.00;;;;;;;;;;10563278;28;20051;-25
2021/08/06 14:05:27;;;;;;;0.00;0.00;;;;;;;;;;10562434;28;20043;-26
2021/08/06 14:10:30;;;;;;;0.00;0.00;;;;;;;;;;10565154;27;20055;-25
2021/08/06 14:15:34;;;;;;;0.00;0.00;;;;;;;;;;10563991;28;20487;-25
2021/08/06 14:20:40;;;;;;;0.00;0.00;;;;;;;;;;10564800;27;20142;-25
2021/08/06 14:25:42;;;;;;;0.00;0.00;;;;;;;;;;10563486;28;20046;-26
2021/08/06 14:30:46;;;;;;;0.00;0.00;;;;;;;;;;10561287;28;20056;-25
2021/08/06 14:35:50;;;;;;;0.00;0.00;;;;;;;;;;10562763;28;20048;-26
2021/08/06 14:40:53;;;;;;;0.00;0.00;;;;;;;;;;10565353;28;20393;-24
2021/08/06 14:45:55;;;;;;;0.00;0.00;;;;;;;;;;10563307;28;20048;-25
2021/08/06 14:50:59;;;;;;;0.00;0.00;;;;;;;;;;10563775;28;20138;-25
2021/08/06 14:56:03;;;;;;;0.00;0.00;;;;;;;;;;10562471;28;20418;-27
2021/08/06 15:01:05;;;;;;;0.00;0.00;;;;;;;;;;10557151;28;20039;-24
2021/08/06 15:06:10;;;;;;;0.10;0.00;;;;;;;;;;10563565;27;20051;-25
2021/08/06 15:11:12;;;;;;;0.00;0.00;;;;;;;;;;10563071;28;20062;-25
2021/08/06 15:16:15;;;;;;;0.00;0.00;;;;;;;;;;10561420;28;20047;-25
2021/08/06 15:21:19;;;;;;;0.00;0.00;;;;;;;;;;10562317;28;20072;-24
2021/08/06 15:26:22;;;;;;;0.00;0.00;;;;;;;;;;10560522;27;20051;-25
2021/08/06 15:31:24;;;;;;;0.00;0.00;;;;;;;;;;10561945;28;20062;-25
2021/08/06 15:36:28;;;;;;;0.00;0.00;;;;;;;;;;10554465;28;20046;-25
2021/08/06 15:41:31;;;;;;;0.00;0.00;;;;;;;;;;10555725;28;20043;-25
2021/08/06 15:46:34;;;;;;;0.00;0.00;;;;;;;;;;10554362;28;20038;-25
2021/08/06 15:51:38;;;;;;;0.00;0.00;;;;;;;;;;10561422;28;20816;-25
2021/08/06 15:56:42;;;;;;;0.10;0.00;;;;;;;;;;10558752;28;20075;-25
2021/08/06 16:01:46;;;;;;;0.00;0.00;;;;;;;;;;10560938;28;20076;-25
2021/08/06 16:06:50;;;;;;;0.00;0.00;;;;;;;;;;10552127;28;20056;-26
2021/08/06 16:11:53;;;;;;;0.00;0.00;;;;;;;;;;10559057;28;20492;-25
2021/08/06 16:16:59;;;;;;;0.00;0.00;;;;;;;;;;10557947;28;20043;-26
2021/08/06 16:22:04;;;;;;;0.00;0.00;;;;;;;;;;10554661;27;20108;-26
2021/08/06 16:27:07;;;;;;;0.00;0.00;;;;;;;;;;10558511;28;20051;-26
2021/08/06 16:32:11;;;;;;;0.00;0.00;;;;;;;;;;10558216;27;20075;-26
2021/08/06 16:37:16;;;;;;;0.00;0.00;;;;;;;;;;10557043;28;20063;-27
2021/08/06 16:42:22;;;;;;;0.00;0.00;;;;;;;;;;10554517;28;20048;-27
2021/08/06 16:47:26;;;;;;;0.00;0.00;;;;;;;;;;10559502;28;20046;-25
2021/08/06 16:52:30;;;;;;;0.00;0.00;;;;;;;;;;10566406;28;20052;-24
2021/08/06 16:57:33;;;;;;;0.00;0.00;;;;;;;;;;10564641;28;20043;-25
2021/08/06 17:02:42;;;;;;;0.00;0.00;;;;;;;;;;10566419;28;20048;-27
2021/08/06 17:07:46;;;;;;;0.00;0.00;;;;;;;;;;10564652;28;20131;-24
2021/08/06 17:12:49;;;;;;;0.00;0.00;;;;;;;;;;10566260;27;20920;-25
2021/08/06 17:17:52;;;;;;;0.00;0.00;;;;;;;;;;10564771;27;20058;-25
2021/08/06 17:22:57;;;;;;;0.00;0.00;;;;;;;;;;10560564;28;20050;-25
2021/08/06 17:27:59;;;;;;;0.00;0.00;;;;;;;;;;10562099;28;20036;-25
2021/08/06 17:33:03;;;;;;;0.00;0.00;;;;;;;;;;10560283;28;20047;-25
2021/08/06 17:38:10;;;;;;;0.00;0.00;;;;;;;;;;10559940;27;20047;-25
2021/08/06 17:43:13;;;;;;;0.00;0.00;;;;;;;;;;10561883;28;20054;-25
2021/08/06 17:48:16;;;;;;;0.00;0.00;;;;;;;;;;10562531;28;20110;-25
2021/08/06 17:53:22;;;;;;;0.00;0.00;;;;;;;;;;10560286;28;20051;-25
2021/08/06 17:58:24;;;;;;;0.00;0.00;;;;;;;;;;10558067;28;20051;-26
2021/08/06 18:03:27;;;;;;;0.00;0.00;;;;;;;;;;10560395;28;20044;-25
2021/08/06 18:08:31;;;;;;;0.00;0.00;;;;;;;;;;10561331;28;20047;-25
2021/08/06 18:13:35;;;;;;;0.00;0.00;;;;;;;;;;10561120;28;20048;-26
2021/08/06 18:18:38;;;;;;;0.00;0.00;;;;;;;;;;10560399;28;20040;-25
2021/08/06 18:23:42;;;;;;;0.00;0.00;;;;;;;;;;10560830;28;20052;-27
2021/08/06 18:28:44;;;;;;;0.00;0.00;;;;;;;;;;10559405;28;20051;-25
2021/08/06 18:33:50;;;;;;;0.00;0.00;;;;;;;;;;10556587;27;20062;-25
2021/08/06 18:38:54;;;;;;;0.00;0.00;;;;;;;;;;10557270;27;20735;-25
2021/08/06 18:43:57;;;;;;;0.00;0.00;;;;;;;;;;10556841;28;20047;-25
2021/08/06 18:49:00;;;;;;;0.00;0.00;;;;;;;;;;10558514;28;20043;-26
2021/08/06 18:54:05;;;;;;;0.00;0.00;;;;;;;;;;10547962;28;20118;-25
2021/08/06 18:59:07;;;;;;;0.00;0.00;;;;;;;;;;10559719;28;20686;-25
2021/08/06 19:04:10;;;;;;;0.00;0.00;;;;;;;;;;10556704;28;20047;-26
2021/08/06 19:09:14;;;;;;;0.00;0.00;;;;;;;;;;10556851;28;20459;-26
2021/08/06 19:14:17;;;;;;;0.00;0.00;;;;;;;;;;10557849;28;20487;-26
2021/08/06 19:19:20;;;;;;;0.00;0.00;;;;;;;;;;10555179;28;20039;-25
2021/08/06 19:24:24;;;;;;;0.00;0.00;;;;;;;;;;10558030;28;20047;-25
2021/08/06 19:29:26;;;;;;;0.00;0.00;;;;;;;;;;10548905;28;20042;-26
2021/08/06 19:34:29;;;;;;;0.00;0.00;;;;;;;;;;10555244;28;20047;-25
2021/08/06 19:39:34;;;;;;;0.00;0.00;;;;;;;;;;10549810;28;20045;-25
2021/08/06 19:44:36;;;;;;;0.00;0.00;;;;;;;;;;10556430;28;20055;-26
2021/08/06 19:49:39;;;;;;;0.00;0.00;;;;;;;;;;10553407;27;20047;-26
2021/08/06 19:54:43;;;;;;;0.00;0.00;;;;;;;;;;10553581;28;20039;-25
2021/08/06 19:59:46;;;;;;;0.00;0.00;;;;;;;;;;10554609;28;20043;-22
2021/08/06 20:04:49;;;;;;;0.00;0.00;;;;;;;;;;10553390;28;20087;-22
2021/08/06 20:09:53;;;;;;;0.00;0.00;;;;;;;;;;10554752;28;20047;-22
2021/08/06 20:14:56;;;;;;;0.00;0.00;;;;;;;;;;10552618;28;20043;-22
2021/08/06 20:19:59;;;;;;;0.00;0.00;;;;;;;;;;10554426;28;20043;-22
2021/08/06 20:25:03;;;;;;;0.00;0.00;;;;;;;;;;10552051;28;20047;-22
2021/08/06 20:30:07;;;;;;;0.00;0.00;;;;;;;;;;10555889;28;20050;-22
2021/08/06 20:35:11;;;;;;;0.00;0.00;;;;;;;;;;10554466;28;20036;-21
2021/08/06 20:40:16;;;;;;;0.00;0.00;;;;;;;;;;10556933;28;20043;-21
2021/08/06 20:45:19;;;;;;;0.00;0.00;;;;;;;;;;10555359;27;20039;-22
2021/08/06 20:50:21;;;;;;;0.00;0.00;;;;;;;;;;10553316;27;20705;-21
2021/08/06 20:55:25;;;;;;;0.00;0.00;;;;;;;;;;10554322;28;20039;-21
2021/08/06 21:00:28;;;;;;;0.00;0.00;;;;;;;;;;10555050;28;20046;-22
2021/08/06 21:05:31;;;;;;;0.00;0.00;;;;;;;;;;10554029;28;20118;-21
2021/08/06 21:10:35;;;;;;;0.00;0.00;;;;;;;;;;10554309;28;20051;-21
2021/08/06 21:15:38;;;;;;;0.00;0.00;;;;;;;;;;10554962;28;20778;-21
2021/08/06 21:20:41;;;;;;;0.00;0.00;;;;;;;;;;10554695;28;20040;-21
2021/08/06 21:25:45;;;;;;;0.00;0.00;;;;;;;;;;10555440;28;20051;-21
2021/08/06 21:30:49;;;;;;;0.00;0.00;;;;;;;;;;10556358;28;20036;-21
2021/08/06 21:35:53;;;;;;;0.00;0.00;;;;;;;;;;10560896;28;20116;-22
2021/08/06 21:40:57;;;;;;;0.00;0.00;;;;;;;;;;10564137;28;20062;-22
2021/08/06 21:46:00;;;;;;;0.00;0.00;;;;;;;;;;10562820;28;20048;-22
2021/08/06 21:51:03;;;;;;;0.00;0.00;;;;;;;;;;10564659;28;20047;-22
2021/08/06 21:56:09;;;;;;;0.00;0.00;;;;;;;;;;10559463;27;20059;-22
2021/08/06 22:01:12;;;;;;;0.00;0.00;;;;;;;;;;10562123;28;20047;-22
2021/08/06 22:06:15;;;;;;;0.00;0.00;;;;;;;;;;10560445;28;20043;-22
2021/08/06 22:11:19;;;;;;;0.00;0.00;;;;;;;;;;10561333;28;20047;-22
2021/08/06 22:16:22;;;;;;;0.00;0.00;;;;;;;;;;10562662;28;20048;-21
2021/08/06 22:21:25;;;;;;;0.00;0.00;;;;;;;;;;10557886;28;20035;-22
2021/08/06 22:26:29;;;;;;;0.00;0.00;;;;;;;;;;10555306;28;20044;-22
2021/08/06 22:31:32;;;;;;;0.00;0.00;;;;;;;;;;10561567;28;20040;-22
2021/08/06 22:36:35;;;;;;;0.00;0.00;;;;;;;;;;10557594;28;20464;-22
2021/08/06 22:41:40;;;;;;;0.10;0.00;;;;;;;;;;10559762;28;20115;-22
2021/08/06 22:46:44;;;;;;;0.00;0.00;;;;;;;;;;10558243;28;20048;-22
2021/08/06 22:51:47;;;;;;;0.00;0.00;;;;;;;;;;10560406;28;20042;-22
2021/08/06 22:56:51;;;;;;;0.00;0.00;;;;;;;;;;10557887;27;20055;-22
2021/08/06 23:01:54;;;;;;;0.00;0.00;;;;;;;;;;10556351;28;20036;-23
2021/08/06 23:06:57;;;;;;;0.00;0.00;;;;;;;;;;10555978;28;20394;-22
2021/08/06 23:12:03;;;;;;;0.00;0.00;;;;;;;;;;10559201;28;20036;-22
2021/08/06 23:17:05;;;;;;;0.13;0.00;;;;;;;;;;10556082;28;20043;-22
2021/08/06 23:22:08;;;;;;;0.00;0.00;;;;;;;;;;10559419;28;20097;-22
2021/08/06 23:27:12;;;;;;;0.00;0.00;;;;;;;;;;10557115;28;20043;-22
2021/08/06 23:32:15;;;;;;;0.00;0.00;;;;;;;;;;10558479;28;20040;-22
2021/08/06 23:37:19;;;;;;;0.00;0.00;;;;;;;;;;10556593;28;20131;-21
2021/08/06 23:42:23;;;;;;;0.00;0.00;;;;;;;;;;10559503;28;20051;-22
2021/08/06 23:47:26;;;;;;;0.70;0.00;;;;;;;;;;10558719;28;20416;-22
2021/08/06 23:52:28;;;;;;;0.00;0.00;;;;;;;;;;10560098;28;20510;-22
2021/08/06 23:57:33;;;;;;;0.00;0.00;;;;;;;;;;10558136;28;20100;-22
